Airfield :
LOGIN :

Register | Disclaimer

   EN    FR    IT 

 










Legend :    VFR   Marginal VFR   IFR   Intensive IFR   Very Intensive IFR
Visi :
Ceiling :
>= 8 km
>= 3000ft
5 to 8 km
1000 to 3000 ft
1500m to 5 km
500 to 1000 ft
800 to 1500m
200 to 500 ft
< 800m
< 200 ft
Symbols :   Thunderstorms  Fog  Heavy snow  Heavy precipitations  Wind > 20 kt
SIGMETs :     Misc.  Thunderstorms  Icing  Turbulence  Mountain Waves  Volcanic Ashes







- Airport Elevation : 2356 ft


LZTT - Poprad Tatry

CURRENT METAR :
  • 182000Z 08007KT 9999 SCT050 BKN066 M02/M04 Q1018

EXPIRED METARs :
  • 181930Z 06006KT 9999 FEW023 BKN056 M01/M04 Q1018
  • 181900Z 06007KT 9999 -SN FEW023 BKN050 M01/M04 Q1018
  • 181830Z 06010KT 9999 -SN FEW033 BKN050 M01/M05 Q1018
  • 181800Z 05011KT 8000 -SN SCT033 OVC050 M01/M03 Q1019
  • 181730Z 06008KT 9999 -SN SCT020 OVC034 M01/M02 Q1019

TAF TAF LZTT
Valid from the 18 at 18:00 until the 19 at 18:00 UTC


181700Z 1818/1918 09008KT 9999 BKN050
TEMPO 1818/1916 4000 -SN BKN020 OVC030
TEMPO 1818/1908 1400 SN BKN010 OVC015
No reported NOTAMs for that airfield.



MET'MAP, your aeronautical weather chart ! - Copyright ORBIFLY December 2007 - Disclaimer

ORBIFLY MET'MAP TEAM :

Programming & Development : Alexandra Zaïnal
Concept & Development : Baudouin d'Aumeries
Co-Development & Prog : Marc-Olivier Méhu
Technical & hardware support : Manuel Goepfert

Contact : metmap@orbifly.com




SOURCES & CREDITS :

   NOAA